Observations

81.3 °F / 27.4 °C
ENE at 20 MPH
84%
76.3°F / 24.6 °C
29.85" (1010 mb)
10 mile(s)
overcast
2020.04.01 2320 UTC

Observations

Surface


Raw METARs

2020/04/01 23:20
PKWA 012320Z AUTO 07017KT 10SM SCT018 BKN035 OVC055 27/25 A2985 RMK AO2 T02740246

Translated METAR

Kwajalein, Bucholz AAF, Kwajalein KMR ATOL Airport, Marshall Islands (PKWA) 08-43N 167-44E 2M
Apr 01, 2020 - 07:20 PM EDT / 2020.04.01 2320 UTC
Wind: from the ENE (070 degrees) at 20 MPH (17 KT):0
Visibility: 10 mile(s):0
Sky conditions: overcast
Temperature: 81.3 F (27.4 C)
Dew Point: 76.3 F (24.6 C)
Relative Humidity: 84%
Pressure (altimeter): 29.85 in. Hg (1010 hPa)
ob: PKWA 012320Z AUTO 07017KT 10SM SCT018 BKN035 OVC055 27/25 A2985 RMK AO2 T02740246
cycle: 23



Upper Air


Latest Skew-T

Skew T Diagram

Latest Data File